Time;durP1;ratioP1;P1;durP2;ratioP2;P2;SDS_P1;SDS_P2;PMS_P1;PMS_P2;Temp;Humidity;BMP_temperature;BMP_pressure;BME280_temperature;BME280_humidity;BME280_pressure;Samples;Min_cycle;Max_cycle;Signal;HPM_P1;HPM_P2
2023/04/12 00:00:00;;;;;;;8.13;2.20;;;9.20;99.90;;;;;;5074675;28;20078;-78
2023/04/12 00:02:26;;;;;;;7.68;2.10;;;9.30;99.90;;;;;;5050391;28;20123;-78
2023/04/12 00:04:56;;;;;;;11.18;2.53;;;9.30;99.90;;;;;;5087116;28;20055;-77
2023/04/12 00:07:23;;;;;;;10.85;2.65;;;9.30;99.90;;;;;;5078424;28;20459;-78
2023/04/12 00:09:50;;;;;;;11.82;2.47;;;9.30;99.90;;;;;;5096050;28;20051;-78
2023/04/12 00:12:18;;;;;;;6.57;2.42;;;9.30;99.90;;;;;;5078052;28;20118;-77
2023/04/12 00:14:44;;;;;;;8.48;2.72;;;9.30;99.90;;;;;;5095309;28;20035;-77
2023/04/12 00:17:10;;;;;;;11.75;2.85;;;9.30;99.90;;;;;;5094700;28;20067;-78
2023/04/12 00:19:40;;;;;;;7.70;2.50;;;9.40;99.90;;;;;;5077527;28;20044;-77
2023/04/12 00:22:07;;;;;;;11.82;3.22;;;9.40;99.90;;;;;;5082601;28;20047;-78
2023/04/12 00:24:33;;;;;;;10.00;2.50;;;9.40;99.90;;;;;;5090752;28;20365;-78
2023/04/12 00:27:00;;;;;;;5.30;2.05;;;9.40;99.90;;;;;;5087250;28;20092;-77
2023/04/12 00:29:27;;;;;;;9.55;2.78;;;9.40;99.90;;;;;;5095068;28;20062;-78
2023/04/12 00:31:52;;;;;;;7.32;2.58;;;9.40;99.90;;;;;;5090938;28;20483;-77
2023/04/12 00:34:18;;;;;;;9.43;2.78;;;9.40;99.90;;;;;;5095052;28;20100;-78
2023/04/12 00:36:44;;;;;;;5.22;2.33;;;9.40;99.90;;;;;;5092367;28;20410;-78
2023/04/12 00:39:09;;;;;;;4.47;2.10;;;9.40;99.90;;;;;;5086267;28;20630;-78
2023/04/12 00:41:36;;;;;;;6.75;2.35;;;9.50;99.90;;;;;;5089849;28;20067;-78
2023/04/12 00:44:02;;;;;;;10.15;2.22;;;9.50;99.90;;;;;;5092002;28;20051;-78
2023/04/12 00:46:28;;;;;;;5.65;2.10;;;9.50;99.90;;;;;;5084965;28;20403;-78
2023/04/12 00:48:55;;;;;;;12.95;2.58;;;9.40;99.90;;;;;;5061099;28;20388;-78
2023/04/12 00:51:24;;;;;;;7.78;2.45;;;9.40;99.90;;;;;;5084643;28;20044;-78
2023/04/12 00:53:54;;;;;;;10.25;2.53;;;9.40;99.90;;;;;;5095275;28;20043;-78
2023/04/12 00:56:22;;;;;;;8.45;2.45;;;9.40;99.90;;;;;;5082212;28;20043;-78
2023/04/12 00:58:48;;;;;;;8.27;2.22;;;9.40;99.90;;;;;;5092801;28;20048;-78
2023/04/12 01:01:15;;;;;;;10.63;1.90;;;9.30;99.90;;;;;;5094673;28;20426;-78
2023/04/12 01:03:42;;;;;;;12.15;2.90;;;9.40;99.90;;;;;;5111942;28;20547;-78
2023/04/12 01:06:12;;;;;;;6.88;2.03;;;9.40;99.90;;;;;;5112490;28;20042;-78
2023/04/12 01:08:49;;;;;;;6.65;1.92;;;9.40;99.90;;;;;;5090567;28;20047;-77
2023/04/12 01:11:24;;;;;;;4.65;1.50;;;9.30;99.90;;;;;;5077226;28;20040;-77
2023/04/12 01:14:21;;;;;;;7.25;2.00;;;9.30;99.90;;;;;;5067291;28;20125;-77
2023/04/12 01:16:54;;;;;;;5.68;1.80;;;9.20;99.90;;;;;;5095754;28;20501;-78
2023/04/12 01:19:35;;;;;;;6.20;1.88;;;9.20;99.90;;;;;;5085929;28;20119;-77
2023/04/12 01:22:12;;;;;;;6.80;2.17;;;9.20;99.90;;;;;;5090294;28;20036;-77
2023/04/12 01:25:09;;;;;;;6.55;2.10;;;9.20;99.90;;;;;;5084325;28;20048;-77
2023/04/12 01:27:43;;;;;;;8.93;2.03;;;9.20;99.90;;;;;;5087600;28;20072;-77
2023/04/12 01:30:14;;;;;;;10.55;2.53;;;9.20;99.90;;;;;;5092932;28;20043;-77
2023/04/12 01:32:44;;;;;;;7.95;2.75;;;9.10;99.90;;;;;;5092055;28;20096;-77
2023/04/12 01:35:10;;;;;;;7.90;1.95;;;9.10;99.90;;;;;;5078713;28;20535;-78
2023/04/12 01:37:36;;;;;;;9.73;2.42;;;9.10;99.90;;;;;;5085860;28;20048;-78
2023/04/12 01:40:04;;;;;;;7.85;2.33;;;9.10;99.90;;;;;;5090649;28;20050;-78
2023/04/12 01:42:31;;;;;;;8.40;2.22;;;9.10;99.90;;;;;;5075460;28;20110;-78
2023/04/12 01:44:57;;;;;;;6.88;1.95;;;9.10;99.90;;;;;;5090747;28;20044;-77
2023/04/12 01:47:23;;;;;;;4.35;1.80;;;9.00;99.90;;;;;;5070927;28;20036;-78
2023/04/12 01:50:00;;;;;;;6.20;2.13;;;9.00;99.90;;;;;;5095099;28;20384;-78
2023/04/12 01:52:31;;;;;;;4.70;1.27;;;9.00;99.90;;;;;;5095020;28;20506;-77
2023/04/12 01:54:58;;;;;;;8.55;1.70;;;8.90;99.90;;;;;;5088362;28;20047;-77
2023/04/12 01:57:25;;;;;;;7.20;2.10;;;8.90;99.90;;;;;;5093025;28;20043;-77
2023/04/12 01:59:53;;;;;;;7.22;2.05;;;8.90;99.90;;;;;;5091503;28;20052;-78
2023/04/12 02:02:19;;;;;;;4.40;1.40;;;8.90;99.90;;;;;;5083931;28;20395;-77
2023/04/12 02:04:46;;;;;;;6.60;2.00;;;8.90;99.90;;;;;;5079218;28;20132;-78
2023/04/12 02:07:14;;;;;;;4.55;1.98;;;8.90;99.90;;;;;;5086763;28;20476;-78
2023/04/12 02:09:40;;;;;;;5.60;2.30;;;8.80;99.90;;;;;;5090581;28;20059;-78
2023/04/12 02:12:07;;;;;;;6.18;1.80;;;8.80;99.90;;;;;;5071516;28;20373;-78
2023/04/12 02:14:33;;;;;;;9.20;2.20;;;8.80;99.90;;;;;;5090719;28;20035;-78
2023/04/12 02:17:01;;;;;;;7.70;2.13;;;8.80;99.90;;;;;;5088014;28;20028;-78
2023/04/12 02:19:27;;;;;;;11.00;2.53;;;8.80;99.90;;;;;;5103889;28;20044;-78
2023/04/12 02:21:52;;;;;;;9.57;2.13;;;8.70;99.90;;;;;;5072130;28;20044;-77
2023/04/12 02:24:18;;;;;;;8.88;1.92;;;8.80;99.90;;;;;;5084367;28;20055;-78
2023/04/12 02:26:45;;;;;;;11.90;3.03;;;8.80;99.90;;;;;;5089607;28;20036;-78
2023/04/12 02:29:11;;;;;;;7.90;1.90;;;8.80;99.90;;;;;;5090465;28;20427;-78
2023/04/12 02:31:37;;;;;;;6.45;2.10;;;8.80;99.90;;;;;;5093471;28;20062;-78
2023/04/12 02:34:04;;;;;;;8.30;2.63;;;8.70;99.90;;;;;;5090613;28;20539;-77
2023/04/12 02:36:30;;;;;;;8.45;2.58;;;8.70;99.90;;;;;;5059930;28;20186;-78
2023/04/12 02:38:56;;;;;;;5.22;2.40;;;8.80;99.90;;;;;;5093646;28;20194;-78
2023/04/12 02:41:22;;;;;;;6.63;2.00;;;8.70;99.90;;;;;;5085325;28;20052;-78
2023/04/12 02:43:47;;;;;;;6.60;1.88;;;8.70;99.90;;;;;;5074362;28;20087;-78
2023/04/12 02:46:20;;;;;;;11.63;3.05;;;8.70;99.90;;;;;;5089461;28;20078;-78
2023/04/12 02:48:46;;;;;;;3.30;1.65;;;8.60;99.90;;;;;;5095588;28;20056;-78
2023/04/12 02:51:40;;;;;;;8.30;2.22;;;8.60;99.90;;;;;;5092880;28;20063;-78
2023/04/12 02:54:08;;;;;;;6.45;2.03;;;8.60;99.90;;;;;;5052059;28;20056;-79
2023/04/12 02:56:34;;;;;;;9.07;1.48;;;8.60;99.90;;;;;;5075953;28;20044;-78
2023/04/12 02:59:00;;;;;;;6.13;1.85;;;8.60;99.90;;;;;;5076408;28;20131;-78
2023/04/12 03:01:26;;;;;;;5.78;1.77;;;8.60;99.90;;;;;;5068960;28;20120;-78
2023/04/12 03:03:51;;;;;;;12.85;2.33;;;8.60;99.90;;;;;;5088957;28;20059;-77
2023/04/12 03:06:17;;;;;;;4.07;1.83;;;8.60;99.90;;;;;;5069064;28;20505;-77
2023/04/12 03:08:43;;;;;;;6.93;1.55;;;8.60;99.90;;;;;;5092279;28;20036;-78
2023/04/12 03:11:09;;;;;;;6.05;1.63;;;8.60;99.90;;;;;;5077017;28;20040;-77
2023/04/12 03:13:35;;;;;;;5.03;1.50;;;8.60;99.90;;;;;;5088084;28;20081;-79
2023/04/12 03:16:22;;;;;;;3.80;1.38;;;8.70;99.90;;;;;;5082884;28;20109;-78
2023/04/12 03:18:49;;;;;;;5.00;1.60;;;8.60;99.90;;;;;;5070969;28;20384;-77
2023/04/12 03:21:15;;;;;;;10.10;1.50;;;8.70;99.90;;;;;;5088720;28;20483;-76
2023/04/12 03:23:41;;;;;;;8.95;1.60;;;8.70;99.90;;;;;;5090954;28;20116;-78
2023/04/12 03:26:07;;;;;;;5.00;1.55;;;8.70;99.90;;;;;;5092302;28;20119;-77
2023/04/12 03:28:33;;;;;;;7.78;2.50;;;8.60;99.90;;;;;;5072212;28;20452;-79
2023/04/12 03:30:59;;;;;;;6.78;1.67;;;8.60;99.90;;;;;;5064685;28;20036;-78
2023/04/12 03:33:26;;;;;;;5.63;1.92;;;8.60;99.90;;;;;;5086750;28;20552;-78
2023/04/12 03:35:51;;;;;;;8.23;2.33;;;8.60;99.90;;;;;;5089078;28;20031;-78
2023/04/12 03:38:17;;;;;;;7.15;1.90;;;8.70;99.90;;;;;;5086901;28;20442;-78
2023/04/12 03:40:43;;;;;;;2.38;1.17;;;8.60;99.90;;;;;;5087229;28;20036;-78
2023/04/12 03:43:08;;;;;;;8.43;1.88;;;8.60;99.90;;;;;;5088193;28;20441;-77
2023/04/12 03:45:34;;;;;;;5.35;1.60;;;8.60;99.90;;;;;;5089388;28;20119;-77
2023/04/12 03:48:00;;;;;;;6.43;1.85;;;8.60;99.90;;;;;;5075240;28;20071;-77
2023/04/12 03:50:28;;;;;;;6.05;1.75;;;8.60;99.90;;;;;;5075805;28;20032;-78
2023/04/12 03:52:54;;;;;;;5.20;2.13;;;8.70;99.90;;;;;;5088568;28;20067;-78
2023/04/12 03:55:20;;;;;;;4.60;1.75;;;8.60;99.90;;;;;;5075486;28;20074;-78
2023/04/12 03:57:45;;;;;;;5.65;2.00;;;8.60;99.90;;;;;;5075726;28;20078;-78
2023/04/12 04:00:12;;;;;;;7.28;2.03;;;8.60;99.90;;;;;;5092406;28;20036;-78
2023/04/12 04:02:38;;;;;;;10.30;2.65;;;8.60;99.90;;;;;;5071916;28;20067;-78
2023/04/12 04:05:04;;;;;;;9.13;2.38;;;8.50;99.90;;;;;;5089141;28;20080;-77
2023/04/12 04:07:30;;;;;;;6.93;1.98;;;8.50;99.90;;;;;;5075210;28;20070;-77
2023/04/12 04:09:56;;;;;;;5.60;1.73;;;8.50;99.90;;;;;;5082182;28;20047;-77
2023/04/12 04:12:22;;;;;;;9.20;2.17;;;8.60;99.90;;;;;;5073406;28;20112;-78
2023/04/12 04:14:48;;;;;;;5.05;1.70;;;8.50;99.90;;;;;;5081950;28;20039;-79
2023/04/12 04:17:13;;;;;;;6.65;2.88;;;8.50;99.90;;;;;;5074631;28;20109;-78
2023/04/12 04:19:39;;;;;;;5.80;2.65;;;8.50;99.90;;;;;;5075168;28;20037;-77
2023/04/12 04:22:05;;;;;;;6.85;2.42;;;8.50;99.90;;;;;;5065360;28;20485;-77
2023/04/12 04:24:33;;;;;;;7.15;2.60;;;8.50;99.90;;;;;;5093914;28;20052;-78
2023/04/12 04:26:58;;;;;;;9.18;3.92;;;8.50;99.90;;;;;;5074740;28;20093;-78
2023/04/12 04:29:24;;;;;;;5.57;3.00;;;8.40;99.90;;;;;;5073560;28;20052;-78
2023/04/12 04:31:51;;;;;;;9.18;4.25;;;8.40;99.90;;;;;;5087977;28;20384;-78
2023/04/12 04:34:17;;;;;;;10.85;4.85;;;8.60;99.90;;;;;;5062308;28;20370;-78
2023/04/12 04:36:43;;;;;;;11.45;5.20;;;8.40;99.90;;;;;;5085235;28;20040;-78
2023/04/12 04:39:10;;;;;;;9.50;4.97;;;8.40;99.90;;;;;;5085772;28;20076;-78
2023/04/12 04:41:38;;;;;;;12.32;5.47;;;8.30;99.90;;;;;;5072740;28;20141;-77
2023/04/12 04:44:10;;;;;;;12.43;5.63;;;8.20;99.90;;;;;;5074440;28;20036;-78
2023/04/12 04:46:36;;;;;;;14.10;6.80;;;8.20;99.90;;;;;;5081236;28;20548;-77
2023/04/12 04:49:04;;;;;;;11.82;5.97;;;8.20;99.90;;;;;;5056902;28;20052;-77
2023/04/12 04:51:29;;;;;;;10.63;6.57;;;8.20;99.90;;;;;;5083170;28;20054;-78
2023/04/12 04:53:55;;;;;;;15.48;6.00;;;8.10;99.90;;;;;;5067351;28;20056;-78
2023/04/12 04:56:22;;;;;;;13.23;6.00;;;8.10;99.90;;;;;;5091096;28;20040;-79
2023/04/12 04:58:49;;;;;;;15.55;7.90;;;8.10;99.90;;;;;;5069672;28;20037;-79
2023/04/12 05:01:15;;;;;;;11.40;7.05;;;8.10;99.90;;;;;;5073460;28;20042;-79
2023/04/12 05:03:43;;;;;;;12.10;6.38;;;8.10;99.90;;;;;;5071938;28;20055;-78
2023/04/12 05:06:09;;;;;;;15.63;8.13;;;8.10;99.90;;;;;;5088803;28;20032;-81
2023/04/12 05:08:35;;;;;;;9.75;6.07;;;8.10;99.90;;;;;;5067898;28;20032;-81
2023/04/12 05:11:01;;;;;;;10.15;6.68;;;8.00;99.90;;;;;;5072930;28;20075;-80
2023/04/12 05:13:26;;;;;;;11.30;5.82;;;8.00;99.90;;;;;;5064630;28;20039;-80
2023/04/12 05:15:52;;;;;;;11.55;5.22;;;8.00;99.90;;;;;;5064057;28;20097;-82
2023/04/12 05:18:18;;;;;;;11.55;5.32;;;8.00;99.90;;;;;;5053146;28;20480;-81
2023/04/12 05:20:44;;;;;;;11.32;5.38;;;8.00;99.90;;;;;;5066692;28;20123;-81
2023/04/12 05:23:10;;;;;;;11.32;4.93;;;8.00;99.90;;;;;;5066188;28;20080;-81
2023/04/12 05:25:36;;;;;;;14.50;5.32;;;8.00;99.90;;;;;;5091288;28;20036;-81
2023/04/12 05:28:02;;;;;;;11.10;5.90;;;8.00;99.90;;;;;;5092002;28;20085;-81
2023/04/12 05:30:28;;;;;;;9.52;5.00;;;7.90;99.90;;;;;;5049655;28;20047;-81
2023/04/12 05:32:54;;;;;;;9.02;4.30;;;7.90;99.90;;;;;;5055794;28;20062;-82
2023/04/12 05:35:19;;;;;;;8.18;3.80;;;7.90;99.90;;;;;;5048098;28;20032;-81
2023/04/12 05:37:45;;;;;;;9.82;4.65;;;7.90;99.90;;;;;;5107280;28;20079;-81
2023/04/12 05:40:11;;;;;;;10.90;4.75;;;7.90;99.90;;;;;;5098564;28;20119;-81
2023/04/12 05:42:37;;;;;;;10.55;4.43;;;7.90;99.90;;;;;;5050203;28;20040;-81
2023/04/12 05:45:04;;;;;;;9.90;3.90;;;7.90;99.90;;;;;;5054663;28;20040;-81
2023/04/12 05:47:30;;;;;;;7.20;3.88;;;7.90;99.90;;;;;;5066761;28;20123;-80
2023/04/12 05:49:55;;;;;;;9.00;4.57;;;7.80;99.90;;;;;;5082786;28;20179;-82
2023/04/12 05:52:21;;;;;;;6.97;3.92;;;7.90;99.90;;;;;;5085993;28;20055;-81
2023/04/12 05:54:47;;;;;;;9.60;4.50;;;7.90;99.90;;;;;;5053200;28;20036;-81
2023/04/12 05:57:14;;;;;;;7.47;4.32;;;7.90;99.90;;;;;;5066835;28;20369;-79
2023/04/12 05:59:40;;;;;;;8.35;4.10;;;7.90;99.90;;;;;;5083393;28;20040;-80
2023/04/12 06:02:06;;;;;;;8.98;4.32;;;7.90;99.90;;;;;;5037822;28;20043;-80
2023/04/12 06:04:32;;;;;;;8.10;4.25;;;7.90;99.90;;;;;;5072409;28;20052;-80
2023/04/12 06:06:58;;;;;;;6.63;4.15;;;7.90;99.90;;;;;;5089736;28;20400;-81
2023/04/12 06:09:26;;;;;;;7.90;4.15;;;7.90;99.90;;;;;;5070902;28;20039;-80
2023/04/12 06:11:52;;;;;;;9.23;4.40;;;7.90;99.90;;;;;;5085403;28;20055;-82
2023/04/12 06:14:18;;;;;;;8.68;3.97;;;7.90;99.90;;;;;;5070849;28;20044;-80
2023/04/12 06:16:44;;;;;;;8.18;4.32;;;7.90;99.90;;;;;;5073080;28;20039;-81
2023/04/12 06:19:10;;;;;;;9.93;4.15;;;7.90;99.90;;;;;;5040571;28;20416;-82
2023/04/12 06:21:35;;;;;;;8.13;3.90;;;8.00;99.90;;;;;;5051265;28;20515;-82
2023/04/12 06:24:01;;;;;;;7.32;4.60;;;9.50;99.90;;;;;;5085201;28;20071;-83
2023/04/12 06:26:30;;;;;;;12.20;4.97;;;7.90;99.90;;;;;;5072365;28;20035;-83
2023/04/12 06:28:55;;;;;;;6.72;4.68;;;8.30;99.90;;;;;;5054696;28;20040;-82
2023/04/12 06:31:21;;;;;;;8.35;5.25;;;7.90;99.90;;;;;;5071589;28;20079;-82
2023/04/12 06:33:47;;;;;;;9.73;4.45;;;8.60;99.90;;;;;;5055865;28;20065;-82
2023/04/12 06:36:14;;;;;;;8.15;4.32;;;8.70;99.90;;;;;;5073052;28;20040;-82
2023/04/12 06:38:40;;;;;;;5.28;3.60;;;8.00;99.90;;;;;;5073350;28;20104;-83
2023/04/12 06:41:06;;;;;;;5.30;4.03;;;8.00;99.90;;;;;;5083342;28;20044;-90
2023/04/12 06:43:33;;;;;;;6.63;3.35;;;;;;;;;;5072142;28;20494;-91
2023/04/12 06:46:01;;;;;;;6.88;4.80;;;8.10;99.90;;;;;;5075084;28;20074;-88
2023/04/12 06:48:27;;;;;;;6.05;4.13;;;8.00;99.90;;;;;;5076391;28;20036;-88
2023/04/12 06:50:53;;;;;;;9.10;4.93;;;8.00;99.90;;;;;;5085660;28;20067;-87
2023/04/12 06:53:19;;;;;;;7.35;4.95;;;8.00;99.90;;;;;;5098058;28;20020;-85
2023/04/12 06:55:45;;;;;;;7.72;4.47;;;7.90;99.90;;;;;;5078413;28;20139;-85
2023/04/12 06:58:11;;;;;;;8.20;5.13;;;8.00;99.90;;;;;;5073158;28;20046;-86
2023/04/12 07:00:37;;;;;;;7.80;5.70;;;;;;;;;;5070522;28;20061;-86
2023/04/12 07:03:02;;;;;;;6.78;4.05;;;8.00;99.90;;;;;;5073570;28;20092;-86
2023/04/12 07:05:28;;;;;;;6.63;4.72;;;8.00;99.90;;;;;;5061624;28;20128;-87
2023/04/12 07:07:54;;;;;;;6.22;4.72;;;8.00;99.90;;;;;;5073698;28;20033;-86
2023/04/12 07:10:20;;;;;;;7.38;5.57;;;;;;;;;;5058403;28;20036;-87
2023/04/12 07:12:46;;;;;;;7.90;5.50;;;8.00;99.90;;;;;;5058237;28;20040;-87
2023/04/12 07:15:11;;;;;;;8.70;6.57;;;8.00;99.90;;;;;;5059193;28;20495;-87
2023/04/12 07:17:37;;;;;;;5.82;4.40;;;8.00;99.90;;;;;;5051154;28;20441;-87
2023/04/12 07:20:03;;;;;;;6.95;4.90;;;8.90;99.90;;;;;;5044415;28;20046;-87
2023/04/12 07:22:29;;;;;;;7.25;5.63;;;8.00;99.90;;;;;;5061765;28;20434;-87
2023/04/12 07:24:55;;;;;;;8.35;5.80;;;8.00;99.90;;;;;;5064013;28;20040;-87
2023/04/12 07:27:21;;;;;;;9.63;6.13;;;8.00;99.90;;;;;;5045549;28;20500;-88
2023/04/12 07:29:46;;;;;;;6.63;5.45;;;8.00;99.90;;;;;;5078055;28;20538;-88
2023/04/12 07:32:12;;;;;;;8.30;5.68;;;7.90;99.90;;;;;;5061119;28;20577;-87
2023/04/12 07:34:38;;;;;;;6.95;5.82;;;8.90;99.90;;;;;;5075250;28;20526;-86
2023/04/12 07:37:04;;;;;;;7.05;6.13;;;8.00;99.90;;;;;;5097559;28;20036;-86
2023/04/12 07:39:31;;;;;;;10.65;6.93;;;8.00;99.90;;;;;;5081530;28;20498;-86
2023/04/12 07:41:57;;;;;;;9.13;6.75;;;8.00;99.90;;;;;;5092664;28;20040;-87
2023/04/12 07:44:23;;;;;;;9.30;7.30;;;8.00;99.90;;;;;;5060576;28;20039;-87
2023/04/12 07:46:48;;;;;;;8.77;6.55;;;8.00;99.90;;;;;;5061167;28;20039;-87
2023/04/12 07:49:14;;;;;;;8.15;6.68;;;8.10;99.90;;;;;;5075096;28;20047;-87
2023/04/12 07:51:41;;;;;;;8.85;6.60;;;8.20;99.90;;;;;;5044401;28;20043;-87
2023/04/12 07:54:08;;;;;;;6.20;5.38;;;8.10;99.90;;;;;;5077580;28;20385;-87
2023/04/12 07:56:35;;;;;;;8.55;6.88;;;8.50;99.90;;;;;;5044478;28;20040;-86
2023/04/12 07:59:00;;;;;;;10.77;7.55;;;8.10;99.90;;;;;;5060734;28;20040;-85
2023/04/12 08:01:27;;;;;;;9.65;6.45;;;8.10;99.90;;;;;;5063123;28;20498;-85
2023/04/12 08:03:52;;;;;;;7.07;6.25;;;8.20;99.90;;;;;;5061207;28;20048;-84
2023/04/12 08:06:18;;;;;;;7.45;6.00;;;8.40;99.90;;;;;;5074295;28;20067;-83
2023/04/12 08:08:44;;;;;;;11.60;7.38;;;8.30;99.90;;;;;;5067782;28;20467;-84
2023/04/12 08:11:10;;;;;;;7.32;5.70;;;8.30;99.90;;;;;;5072819;28;20036;-84
2023/04/12 08:13:36;;;;;;;8.40;6.28;;;8.60;99.90;;;;;;5074102;28;20119;-83
2023/04/12 08:16:02;;;;;;;9.85;7.20;;;8.40;99.90;;;;;;5073963;28;20131;-84
2023/04/12 08:18:28;;;;;;;12.57;6.97;;;8.40;99.90;;;;;;5073578;28;20075;-84
2023/04/12 08:20:57;;;;;;;10.15;6.80;;;8.40;99.90;;;;;;5058471;28;20044;-83
2023/04/12 08:23:24;;;;;;;9.23;6.70;;;8.40;99.90;;;;;;5089347;28;20052;-83
2023/04/12 08:25:51;;;;;;;8.52;6.90;;;8.40;99.90;;;;;;5040316;28;20033;-84
2023/04/12 08:28:16;;;;;;;11.77;6.88;;;8.50;99.90;;;;;;5039626;28;20036;-84
2023/04/12 08:30:43;;;;;;;10.23;7.13;;;9.00;99.90;;;;;;5056827;28;20120;-83
2023/04/12 08:33:08;;;;;;;12.00;8.32;;;8.80;99.90;;;;;;5074665;28;20032;-83
2023/04/12 08:35:34;;;;;;;9.75;6.43;;;8.60;99.90;;;;;;5061516;28;20032;-84
2023/04/12 08:38:06;;;;;;;7.65;5.93;;;8.50;99.90;;;;;;5093183;28;20050;-83
2023/04/12 08:40:32;;;;;;;8.85;7.00;;;8.60;99.90;;;;;;5064276;28;20040;-85
2023/04/12 08:43:04;;;;;;;6.85;5.75;;;8.60;99.90;;;;;;5056633;28;20045;-83
2023/04/12 08:45:33;;;;;;;8.68;6.18;;;8.70;99.90;;;;;;5056648;28;20119;-83
2023/04/12 08:48:00;;;;;;;8.13;5.82;;;8.70;99.90;;;;;;5072707;28;20090;-84
2023/04/12 08:50:26;;;;;;;6.72;4.70;;;8.70;99.90;;;;;;5083035;28;20046;-83
2023/04/12 08:52:52;;;;;;;5.95;4.95;;;8.70;99.90;;;;;;5076561;28;20044;-84
2023/04/12 08:55:18;;;;;;;12.63;5.93;;;8.70;99.90;;;;;;5071553;28;20048;-83
2023/04/12 08:57:44;;;;;;;7.95;5.53;;;8.70;99.90;;;;;;5056206;28;20389;-83
2023/04/12 09:00:12;;;;;;;7.53;5.03;;;8.80;99.90;;;;;;5039374;28;20480;-83
2023/04/12 09:02:38;;;;;;;8.50;5.43;;;8.80;99.90;;;;;;5056144;28;20045;-83
2023/04/12 09:05:05;;;;;;;7.93;4.90;;;8.90;99.90;;;;;;5085988;28;20093;-82
2023/04/12 09:07:31;;;;;;;8.63;5.50;;;9.00;99.90;;;;;;5092592;28;20484;-84
2023/04/12 09:09:57;;;;;;;11.13;6.40;;;9.10;99.90;;;;;;5055224;28;20040;-83
2023/04/12 09:12:24;;;;;;;7.72;6.28;;;9.20;99.90;;;;;;5072346;28;20051;-83
2023/04/12 09:15:12;;;;;;;7.15;4.80;;;9.30;99.90;;;;;;5072739;28;20049;-83
2023/04/12 09:17:39;;;;;;;6.55;4.68;;;9.40;99.90;;;;;;5090409;28;20040;-84
2023/04/12 09:20:11;;;;;;;6.65;4.22;;;9.40;99.90;;;;;;5085596;28;20028;-83
2023/04/12 09:22:43;;;;;;;9.43;4.90;;;9.50;99.90;;;;;;5098679;28;20032;-83
2023/04/12 09:25:10;;;;;;;8.55;4.43;;;9.50;99.90;;;;;;5076698;28;20518;-85
2023/04/12 09:27:49;;;;;;;10.10;4.45;;;9.50;99.90;;;;;;5064616;28;20045;-83
2023/04/12 09:30:16;;;;;;;8.82;4.30;;;9.50;99.90;;;;;;5086780;28;20043;-84
2023/04/12 09:32:41;;;;;;;8.70;4.22;;;9.50;99.90;;;;;;5059500;28;20040;-84
2023/04/12 09:35:09;;;;;;;13.55;4.43;;;9.60;99.90;;;;;;5076369;28;20047;-83
2023/04/12 09:37:35;;;;;;;11.38;3.92;;;9.70;99.90;;;;;;5075885;28;20464;-83
2023/04/12 09:40:04;;;;;;;10.10;4.80;;;9.80;99.90;;;;;;5074535;28;20492;-85
2023/04/12 09:42:31;;;;;;;10.18;4.60;;;9.90;99.90;;;;;;5074999;28;20101;-83
2023/04/12 09:44:58;;;;;;;9.50;4.47;;;10.10;99.90;;;;;;5074130;28;20031;-84
2023/04/12 09:47:40;;;;;;;9.88;4.63;;;10.30;99.90;;;;;;5075401;28;20036;-84
2023/04/12 09:50:06;;;;;;;14.00;4.95;;;10.60;99.90;;;;;;5075233;28;20036;-83
2023/04/12 09:52:37;;;;;;;8.13;4.13;;;10.70;99.90;;;;;;5058417;28;20048;-84
2023/04/12 09:55:08;;;;;;;12.35;4.40;;;10.70;99.90;;;;;;5091603;28;20094;-82
2023/04/12 09:57:38;;;;;;;12.80;5.28;;;10.90;99.90;;;;;;5075399;28;20048;-83
2023/04/12 10:00:17;;;;;;;14.68;5.20;;;11.10;99.90;;;;;;5091840;28;20492;-82
2023/04/12 10:02:44;;;;;;;12.43;4.80;;;11.30;99.90;;;;;;5075362;28;20032;-82
2023/04/12 10:05:12;;;;;;;16.70;4.72;;;11.40;99.90;;;;;;5091319;28;20056;-83
2023/04/12 10:07:41;;;;;;;14.25;4.20;;;11.50;99.90;;;;;;5072138;28;20036;-82
2023/04/12 10:10:11;;;;;;;13.95;4.30;;;11.60;99.90;;;;;;5044498;28;20548;-83
2023/04/12 10:12:39;;;;;;;17.13;3.38;;;11.90;99.90;;;;;;5059425;28;20052;-82
2023/04/12 10:15:11;;;;;;;13.55;3.60;;;12.10;99.90;;;;;;5090333;28;20044;-82
2023/04/12 10:17:57;;;;;;;12.27;3.80;;;12.40;99.90;;;;;;5090316;28;20044;-83
2023/04/12 10:20:23;;;;;;;11.57;3.78;;;12.50;99.90;;;;;;5086508;28;20044;-83
2023/04/12 10:22:51;;;;;;;16.33;4.18;;;12.60;99.90;;;;;;5070093;28;20040;-84
2023/04/12 10:25:21;;;;;;;17.77;3.70;;;12.60;99.90;;;;;;5077086;28;20104;-83
2023/04/12 10:27:47;;;;;;;15.75;3.67;;;12.70;99.90;;;;;;5090783;28;20033;-83
2023/04/12 10:30:26;;;;;;;12.98;2.95;;;12.80;99.90;;;;;;5046104;28;20119;-83
2023/04/12 10:33:01;;;;;;;13.25;3.10;;;12.90;99.90;;;;;;5060393;28;20038;-83
2023/04/12 10:35:27;;;;;;;20.95;4.20;;;12.80;99.90;;;;;;5086863;28;20036;-83
2023/04/12 10:38:03;;;;;;;15.55;3.53;;;12.70;99.90;;;;;;5051637;28;20075;-83
2023/04/12 10:40:33;;;;;;;13.95;2.75;;;12.60;99.90;;;;;;5064378;28;20415;-83
2023/04/12 10:43:17;;;;;;;15.05;3.08;;;12.60;99.90;;;;;;5056130;28;20036;-83
2023/04/12 10:45:43;;;;;;;21.17;3.47;;;12.60;99.90;;;;;;5069743;28;20032;-83
2023/04/12 10:48:34;;;;;;;14.90;3.13;;;12.70;99.90;;;;;;5087563;28;20033;-82
2023/04/12 10:51:29;;;;;;;18.67;4.20;;;12.60;99.90;;;;;;5066716;28;20072;-82
2023/04/12 10:54:07;;;;;;;14.40;3.65;;;12.80;99.90;;;;;;5065562;28;20044;-83
2023/04/12 10:56:44;;;;;;;16.67;3.47;;;12.90;99.90;;;;;;5074840;28;20511;-82
2023/04/12 10:59:13;;;;;;;14.70;3.83;;;13.10;99.90;;;;;;5059092;28;20128;-82
2023/04/12 11:01:40;;;;;;;9.93;2.50;;;13.20;99.90;;;;;;5043912;28;20036;-82
2023/04/12 11:04:15;;;;;;;12.50;3.10;;;13.30;99.90;;;;;;5077476;28;20053;-82
2023/04/12 11:06:58;;;;;;;8.23;2.58;;;13.40;99.90;;;;;;5061073;28;20044;-82
2023/04/12 11:09:51;;;;;;;15.63;3.28;;;13.50;99.90;;;;;;5066559;28;20055;-81
2023/04/12 11:12:18;;;;;;;16.20;3.38;;;13.40;99.90;;;;;;5058732;28;20041;-82
2023/04/12 11:14:48;;;;;;;15.77;3.42;;;13.40;99.90;;;;;;5070596;28;20070;-81
2023/04/12 11:17:17;;;;;;;15.00;3.85;;;13.30;99.90;;;;;;5075361;28;20090;-82
2023/04/12 11:19:43;;;;;;;12.32;3.08;;;13.30;99.90;;;;;;5058325;28;20036;-81
2023/04/12 11:22:10;;;;;;;11.80;2.28;;;13.30;99.90;;;;;;5058177;28;20032;-81
2023/04/12 11:24:58;;;;;;;11.35;2.50;;;13.30;99.90;;;;;;5042094;28;20488;-82
2023/04/12 11:27:26;;;;;;;13.98;2.60;;;13.20;99.90;;;;;;5061602;28;20086;-82
2023/04/12 11:29:59;;;;;;;14.32;2.88;;;13.10;99.90;;;;;;5074676;28;20041;-81
2023/04/12 11:32:28;;;;;;;19.23;3.13;;;13.00;99.90;;;;;;5041435;28;20098;-81
2023/04/12 11:34:55;;;;;;;10.80;2.50;;;13.00;99.90;;;;;;5077416;28;20484;-82
2023/04/12 11:37:22;;;;;;;11.55;2.50;;;13.00;99.90;;;;;;5044501;28;20082;-82
2023/04/12 11:39:51;;;;;;;17.55;3.33;;;13.00;99.90;;;;;;5051553;28;20061;-83
2023/04/12 11:42:20;;;;;;;18.20;3.40;;;13.10;99.90;;;;;;5041279;28;20040;-82
2023/04/12 11:44:46;;;;;;;13.02;3.13;;;13.20;99.90;;;;;;5058253;28;20109;-83
2023/04/12 11:47:17;;;;;;;12.23;2.92;;;13.30;99.90;;;;;;5072651;28;20119;-83
2023/04/12 11:49:45;;;;;;;15.02;3.30;;;13.40;99.90;;;;;;5082709;28;20028;-82
2023/04/12 11:52:11;;;;;;;12.75;2.88;;;13.30;99.90;;;;;;5075642;28;20082;-82
2023/04/12 11:54:41;;;;;;;17.08;2.90;;;13.20;99.90;;;;;;5070921;28;20093;-82
2023/04/12 11:57:11;;;;;;;20.55;3.50;;;13.10;99.90;;;;;;5072833;28;20049;-82
2023/04/12 11:59:36;;;;;;;17.30;3.25;;;13.00;99.90;;;;;;5092823;28;20117;-82
2023/04/12 12:02:04;;;;;;;15.57;3.10;;;12.90;99.90;;;;;;5058296;28;20484;-82
2023/04/12 12:04:30;;;;;;;17.13;2.72;;;12.90;99.90;;;;;;5082944;28;20193;-83
2023/04/12 12:06:57;;;;;;;15.13;3.45;;;12.90;99.90;;;;;;5072421;28;20044;-83
2023/04/12 12:09:24;;;;;;;22.15;3.50;;;12.90;99.90;;;;;;5089860;28;20132;-82
2023/04/12 12:11:51;;;;;;;21.40;4.07;;;12.90;99.90;;;;;;5053212;28;20048;-83
2023/04/12 12:14:21;;;;;;;17.52;3.70;;;13.00;99.90;;;;;;5061335;28;20093;-82
2023/04/12 12:16:57;;;;;;;16.42;3.45;;;13.00;99.90;;;;;;5087992;28;20033;-82
2023/04/12 12:19:35;;;;;;;18.02;3.83;;;13.10;99.90;;;;;;5066099;28;20032;-83
2023/04/12 12:22:21;;;;;;;14.98;2.80;;;13.10;99.90;;;;;;5086862;28;20078;-82
2023/04/12 12:24:58;;;;;;;15.90;3.17;;;13.20;99.90;;;;;;5067747;28;20116;-82
2023/04/12 12:27:24;;;;;;;15.50;3.03;;;13.50;99.90;;;;;;5053112;28;20032;-82
2023/04/12 12:29:53;;;;;;;14.20;2.55;;;13.70;99.90;;;;;;5066181;28;20039;-82
2023/04/12 12:32:21;;;;;;;10.63;2.65;;;13.90;99.90;;;;;;5070882;28;20044;-81
2023/04/12 12:34:55;;;;;;;12.00;2.80;;;13.90;99.90;;;;;;5087991;28;20052;-81
2023/04/12 12:37:26;;;;;;;14.88;2.78;;;13.80;99.90;;;;;;5092347;28;20119;-81
2023/04/12 12:40:09;;;;;;;17.85;3.17;;;13.80;99.90;;;;;;5074872;28;20036;-82
2023/04/12 12:42:35;;;;;;;16.92;3.22;;;13.80;99.90;;;;;;5089346;28;20035;-81
2023/04/12 12:45:03;;;;;;;14.27;2.88;;;13.60;99.90;;;;;;5041234;28;20912;-81
2023/04/12 12:47:30;;;;;;;16.63;2.95;;;13.50;99.90;;;;;;5043052;28;20050;-83
2023/04/12 12:49:56;;;;;;;14.13;2.72;;;13.50;99.90;;;;;;5068671;28;20051;-81
2023/04/12 12:52:22;;;;;;;13.07;2.63;;;13.40;99.90;;;;;;5047756;28;20093;-81
2023/04/12 12:54:48;;;;;;;11.02;2.50;;;13.30;99.90;;;;;;5084697;28;20036;-82